Flight Track Log - Related Links

Times and Time Zones

All times are in EDT time to prevent confusion due to time zone crossing. See the EJA929 flight status page for this flight to view local times or setup timezone preferences in your user account.

Time Position Orientation Groundspeed Altitude Reporting Facility
EDT Latitude Longitude Course Direction KTS MPH feet Rate Location/Type
Tue 02:59:01 PM 42.4308 -83.0314 333° Northwest 176 203 1,600  Level Cleveland Center
Tue 02:59:25 PM 42.4419 -83.0392 333° Northwest 199 229 2,000 1,953 Climbing Cleveland Center
Tue 03:00:27 PM 42.5019 -83.0503 352° North 218 251 4,400 2,795 Climbing Cleveland Center
Tue 03:00:38 PM 42.5300 -83.0506 360° North 227 261 5,400 3,000 Climbing Cleveland Center
Tue 03:01:29 PM 42.5786 -83.0553 356° North 230 265 7,500 2,597 Climbing Cleveland Center
Tue 03:01:45 PM 42.5972 -83.0739 324° Northwest 235 270 8,300 2,129 Climbing Cleveland Center
Tue 03:02:31 PM 42.6375 -83.1103 326° Northwest 252 290 9,700 1,722 Climbing Cleveland Center
Tue 03:03:33 PM 42.7039 -83.1725 325° Northwest 290 334 11,400 1,597 Climbing Cleveland Center
Tue 03:04:35 PM 42.7792 -83.2419 326° Northwest 318 366 13,000 1,440 Climbing Cleveland Center
Tue 03:05:38 PM 42.8528 -83.3136 324° Northwest 331 381 14,400 1,536 Climbing Cleveland Center
Tue 03:06:40 PM 42.9333 -83.4256 315° West 345 397 16,200 1,645 Climbing Cleveland Center
Tue 03:07:42 PM 43.0042 -83.5242 315° West 363 418 17,800 1,548 Climbing Cleveland Center
Tue 03:08:44 PM 43.0717 -83.6175 315° West 349 402 19,400 1,500 Climbing Cleveland Center
Tue 03:09:46 PM 43.1394 -83.7086 316° Northwest 343 395 20,900 1,355 Climbing Cleveland Center
Tue 03:10:48 PM 43.2089 -83.8061 314° West 356 410 22,200 1,355 Climbing Cleveland Center
Tue 03:11:50 PM 43.2950 -83.9261 315° West 367 422 23,700 1,355 Climbing Cleveland Center
Tue 03:12:52 PM 43.3736 -84.0372 314° West 382 440 25,000 1,176 Climbing Cleveland Center
Tue 03:13:32 PM 43.4175 -84.1022 313° West 385 443 25,700 1,118 Climbing Minneapolis Center
Tue 03:14:34 PM 43.4950 -84.2106 315° West 394 453 26,900 1,161 Climbing Minneapolis Center
Tue 03:15:36 PM 43.5736 -84.3211 314° West 402 463 28,100 1,024 Climbing Minneapolis Center
Tue 03:16:37 PM 43.6536 -84.4353 314° West 411 473 29,000 439 Climbing Minneapolis Center
Tue 03:17:39 PM 43.7328 -84.5558 312° West 421 484 29,000 976 Level Minneapolis Center
Tue 03:18:40 PM 43.8114 -84.7269 303° West 438 504 31,000 1,805 Climbing Minneapolis Center
Tue 03:19:42 PM 43.8728 -84.8633 302° West 427 491 32,700 1,610 Climbing Minneapolis Center
Tue 03:20:43 PM 43.9328 -84.9967 302° West 417 480 34,300 1,512 Climbing Minneapolis Center
Tue 03:21:45 PM 43.9933 -85.1303 302° West 412 474 35,800 1,452 Climbing Minneapolis Center
Tue 03:22:47 PM 44.0597 -85.2772 302° West 409 471 37,300 1,415 Climbing Minneapolis Center
Tue 03:23:48 PM 44.1192 -85.4097 302° West 406 467 38,700 1,220 Climbing Minneapolis Center
Tue 03:24:50 PM 44.1781 -85.5408 302° West 401 461 39,800 629 Climbing Minneapolis Center
Tue 03:25:52 PM 44.2369 -85.6761 301° West 405 466 40,000 98 Climbing Minneapolis Center
Tue 03:26:53 PM 44.2969 -85.8136 301° West 410 472 40,000  Level Minneapolis Center
Tue 03:27:55 PM 44.3586 -85.9528 302° West 417 480 40,000  Level Minneapolis Center
Tue 03:28:56 PM 44.4197 -86.0942 301° West 422 486 40,000  Level Minneapolis Center
Tue 03:29:58 PM 44.4933 -86.2658 301° West 424 488 40,000  Level Minneapolis Center
Tue 03:31:00 PM 44.5553 -86.4075 302° West 423 487 40,000  Level Minneapolis Center
Tue 03:32:02 PM 44.6142 -86.5467 301° West 415 478 40,000  Level Minneapolis Center
Tue 03:33:03 PM 44.6750 -86.6892 301° West 418 481 40,000  Level Minneapolis Center
Tue 03:34:05 PM 44.7333 -86.8286 301° West 415 478 40,000  Level Minneapolis Center
Tue 03:35:07 PM 44.7906 -86.9658 300° West 409 471 40,000  Level Minneapolis Center
Tue 03:36:08 PM 44.8494 -87.1050 301° West 413 475 40,000  Level Minneapolis Center
Tue 03:37:10 PM 44.9097 -87.2439 302° West 415 478 40,000  Level Minneapolis Center
Tue 03:38:12 PM 44.9667 -87.3822 300° West 411 473 40,000  Level Minneapolis Center
Tue 03:39:14 PM 45.0350 -87.5478 300° West 407 468 40,000  Level Minneapolis Center
Tue 03:40:15 PM 45.0919 -87.6861 300° West 409 471 40,000  Level Minneapolis Center
Tue 03:41:17 PM 45.1486 -87.8236 300° West 406 467 40,000  Level Minneapolis Center
Tue 03:42:19 PM 45.2050 -87.9625 300° West 407 468 40,000  Level Minneapolis Center
Tue 03:43:20 PM 45.2608 -88.1011 300° West 405 466 40,000  Level Minneapolis Center
Tue 03:44:22 PM 45.3261 -88.2628 300° West 406 467 40,000  Level Minneapolis Center
Tue 03:45:24 PM 45.3814 -88.4025 299° West 406 467 40,000  Level Minneapolis Center
Tue 03:46:26 PM 45.4369 -88.5417 300° West 405 466 40,000  Level Minneapolis Center
Tue 03:47:27 PM 45.4917 -88.6806 299° West 403 464 40,000  Level Minneapolis Center
Tue 03:48:29 PM 45.5469 -88.8197 300° West 402 463 40,000  Level Minneapolis Center
Tue 03:49:31 PM 45.6031 -88.9625 299° West 404 465 40,000  Level Minneapolis Center
Tue 03:50:33 PM 45.6572 -89.1008 299° West 402 463 40,000  Level Minneapolis Center
Tue 03:51:34 PM 45.7100 -89.2394 299° West 398 458 40,000  Level Minneapolis Center
Tue 03:52:36 PM 45.7628 -89.3781 299° West 398 458 40,000  Level Minneapolis Center
Tue 03:53:38 PM 45.8278 -89.5458 299° West 400 460 40,000  Level Minneapolis Center
Tue 03:54:40 PM 45.8794 -89.6836 298° West 396 456 40,000  Level Minneapolis Center
Tue 03:55:41 PM 45.9372 -89.8283 300° West 397 457 40,000  Level Minneapolis Center
Tue 03:56:43 PM 45.9886 -89.9672 298° West 392 451 40,000  Level Minneapolis Center
Tue 03:57:45 PM 46.0417 -90.1028 299° West 389 448 40,000  Level Minneapolis Center
Tue 03:58:47 PM 46.0933 -90.2394 299° West 388 447 40,000  Level Minneapolis Center
Tue 03:59:49 PM 46.1433 -90.3767 298° West 387 445 40,000  Level Minneapolis Center
Tue 04:00:50 PM 46.1961 -90.5144 299° West 389 448 40,000  Level Minneapolis Center
Tue 04:01:52 PM 46.2461 -90.6522 298° West 387 445 40,000  Level Minneapolis Center
Tue 04:02:54 PM 46.3078 -90.8181 298° West 390 449 40,000  Level Minneapolis Center
Tue 04:03:56 PM 46.3578 -90.9558 298° West 388 447 40,000  Level Minneapolis Center
Tue 04:04:58 PM 46.4083 -91.0933 298° West 387 445 40,000  Level Minneapolis Center
Tue 04:05:59 PM 46.4586 -91.2325 298° West 388 447 40,000  Level Minneapolis Center
Tue 04:07:01 PM 46.5069 -91.3689 297° West 385 443 40,000  Level Minneapolis Center
Tue 04:08:03 PM 46.5536 -91.5061 296° West 382 440 40,000  Level Minneapolis Center
Tue 04:09:05 PM 46.6058 -91.6422 299° West 382 440 40,000  Level Minneapolis Center
Tue 04:10:07 PM 46.6639 -91.7714 303° West 383 441 40,000  Level Minneapolis Center
Tue 04:11:09 PM 46.7461 -91.9128 310° West 382 440 40,000  Level Minneapolis Center
Tue 04:12:11 PM 46.8108 -92.0319 308° West 379 436 40,000  Level Minneapolis Center
Tue 04:13:12 PM 46.8733 -92.1497 308° West 371 427 40,000  Level Minneapolis Center
Tue 04:14:14 PM 46.9369 -92.2686 308° West 372 428 40,000  Level Minneapolis Center
Tue 04:15:16 PM 47.0006 -92.3897 308° West 373 429 40,000  Level Minneapolis Center
Tue 04:16:18 PM 47.0636 -92.5092 308° West 373 429 40,000  Level Minneapolis Center
Tue 04:17:20 PM 47.1394 -92.6528 308° West 373 429 40,000  Level Minneapolis Center
Tue 04:18:22 PM 47.2031 -92.7725 308° West 372 428 40,000  Level Minneapolis Center
Tue 04:19:24 PM 47.2656 -92.8925 308° West 372 428 40,000  Level Minneapolis Center
Tue 04:20:26 PM 47.3275 -93.0111 308° West 369 425 40,000  Level Minneapolis Center
Tue 04:21:28 PM 47.3981 -93.1497 307° West 371 427 40,000  Level Minneapolis Center
Tue 04:22:30 PM 47.4614 -93.2758 307° West 380 437 40,000  Level Minneapolis Center
Tue 04:23:32 PM 47.5247 -93.3992 307° West 384 442 40,000  Level Minneapolis Center
Tue 04:24:34 PM 47.5886 -93.5231 307° West 381 438 40,000  Level Minneapolis Center
Tue 04:25:36 PM 47.6533 -93.6533 306° West 389 448 40,000  Level Minneapolis Center
Tue 04:26:38 PM 47.7311 -93.8089 307° West 389 448 40,000  Level Minneapolis Center
Tue 04:27:40 PM 47.7956 -93.9369 307° West 392 451 40,000  Level Minneapolis Center
Tue 04:28:42 PM 47.8611 -94.0675 307° West 395 455 40,000  Level Minneapolis Center
Tue 04:29:44 PM 47.9258 -94.2008 306° West 396 456 40,000  Level Minneapolis Center
Tue 04:30:46 PM 47.9922 -94.3328 307° West 398 458 40,000  Level Minneapolis Center
Tue 04:31:48 PM 48.0575 -94.4675 306° West 401 461 40,000  Level Minneapolis Center
Tue 04:32:50 PM 48.1372 -94.6278 307° West 401 461 40,000  Level Minneapolis Center
Tue 04:33:52 PM 48.2022 -94.7642 306° West 403 464 40,000  Level Minneapolis Center
Tue 04:34:55 PM 48.2672 -94.8994 306° West 402 463 40,000  Level Minneapolis Center
Tue 04:35:57 PM 48.3331 -95.0342 306° West 401 461 40,000  Level Minneapolis Center
Tue 04:36:59 PM 48.3981 -95.1692 306° West 400 460 40,000  Level Minneapolis Center
Tue 04:38:01 PM 48.4617 -95.3050 305° West 399 459 40,000  Level Minneapolis Center
Tue 04:39:03 PM 48.5386 -95.4656 306° West 397 457 40,000  Level Minneapolis Center
Tue 04:40:05 PM 48.5972 -95.5908 305° West 397 457 40,000  Level Minneapolis Center
Tue 04:41:07 PM 48.6611 -95.7275 305° West 398 458 40,000  Level Minneapolis Center
Tue 04:42:09 PM 48.7372 -95.8892 306° West 396 456 40,000  Level Minneapolis Center
Tue 04:43:11 PM 48.8003 -96.0258 305° West 397 457 40,000  Level Minneapolis Center
Tue 04:44:03 PM 48.8333 -96.1333 295° West 390 449 40,000  Level Winnipeg Center
Tue 04:45:03 PM 48.9000 -96.2833 304° West 400 460 40,000  Level Winnipeg Center
Tue 04:46:03 PM 48.9500 -96.4000 303° West 400 460 40,000  Level Winnipeg Center
Tue 04:47:03 PM 49.0333 -96.5500 310° West 400 460 40,000  Level Winnipeg Center
Tue 04:48:03 PM 49.1000 -96.6833 307° West 400 460 40,000  Level Winnipeg Center
Tue 04:49:03 PM 49.1667 -96.8333 304° West 400 460 40,000  Level Winnipeg Center
Tue 04:50:03 PM 49.2167 -96.9667 300° West 400 460 40,000  Level Winnipeg Center
Tue 04:51:03 PM 49.2833 -97.1000 308° West 390 449 40,000  Level Winnipeg Center
Tue 04:52:03 PM 49.3500 -97.2500 304° West 400 460 40,000  Level Winnipeg Center
Tue 04:53:03 PM 49.4000 -97.3833 300° West 400 460 40,000  Level Winnipeg Center
Tue 04:54:03 PM 49.4667 -97.5333 304° West 400 460 40,000  Level Winnipeg Center
Tue 04:55:03 PM 49.5333 -97.6667 308° West 400 460 40,000  Level Winnipeg Center
Tue 04:56:03 PM 49.6000 -97.8167 304° West 400 460 40,000  Level Winnipeg Center
Tue 04:57:03 PM 49.6500 -97.9667 297° West 410 472 40,000  Level Winnipeg Center
Tue 04:58:03 PM 49.7000 -98.1000 300° West 410 472 40,000  Level Winnipeg Center
Tue 04:59:03 PM 49.7667 -98.2667 302° West 410 472 40,000  Level Winnipeg Center
Tue 05:00:03 PM 49.8333 -98.4000 308° West 410 472 40,000  Level Winnipeg Center
Tue 05:01:03 PM 49.9000 -98.5500 305° West 410 472 40,000  Level Winnipeg Center
Tue 05:02:03 PM 49.9667 -98.7167 302° West 410 472 40,000  Level Winnipeg Center
Tue 05:03:03 PM 50.0333 -98.8333 312° West 410 472 40,000  Level Winnipeg Center
Tue 05:04:03 PM 50.1000 -99.0000 302° West 410 472 40,000  Level Winnipeg Center
Tue 05:05:03 PM 50.1500 -99.1333 300° West 410 472 40,000  Level Winnipeg Center
Tue 05:06:03 PM 50.2000 -99.3000 295° West 400 460 40,000  Level Winnipeg Center
Tue 05:07:03 PM 50.2667 -99.4333 308° West 400 460 40,000  Level Winnipeg Center
Tue 05:08:03 PM 50.3333 -99.5833 305° West 400 460 40,000  Level Winnipeg Center
Tue 05:09:03 PM 50.3833 -99.7500 295° West 400 460 40,000  Level Winnipeg Center
Tue 05:10:03 PM 50.4333 -99.9000 298° West 390 449 40,000  Level Winnipeg Center
Tue 05:11:03 PM 50.4500 -100.0667 279° West 390 449 40,000  Level Winnipeg Center
Tue 05:12:03 PM 50.4833 -100.2333 288° West 390 449 40,000  Level Winnipeg Center
Tue 05:13:03 PM 50.5167 -100.3833 289° West 390 449 40,000  Level Winnipeg Center
Tue 05:14:03 PM 50.5500 -100.5667 286° West 390 449 40,000  Level Winnipeg Center
Tue 05:15:03 PM 50.5667 -100.7333 279° West 400 460 40,000  Level Winnipeg Center
Tue 05:16:03 PM 50.5833 -100.9000 279° West 400 460 40,000  Level Winnipeg Center
Tue 05:17:03 PM 50.6167 -101.0833 286° West 400 460 40,000  Level Winnipeg Center
Tue 05:18:03 PM 50.6333 -101.2333 280° West 400 460 40,000  Level Winnipeg Center
Tue 05:19:03 PM 50.6667 -101.4333 285° West 400 460 40,000  Level Winnipeg Center
Tue 05:20:03 PM 50.6833 -101.5833 280° West 400 460 40,000  Level Winnipeg Center
Tue 05:21:03 PM 50.7167 -101.7500 288° West 400 460 40,000  Level Winnipeg Center
Tue 05:22:03 PM 50.7500 -101.9333 286° West 400 460 40,000  Level Winnipeg Center
Tue 05:23:03 PM 50.7667 -102.1000 279° West 400 460 40,000  Level Winnipeg Center
Tue 05:24:03 PM 50.8000 -102.2667 288° West 400 460 40,000  Level Winnipeg Center
Tue 05:25:03 PM 50.8167 -102.4500 278° West 400 460 40,000  Level Winnipeg Center
Tue 05:26:03 PM 50.8333 -102.6333 278° West 400 460 40,000  Level Winnipeg Center
Tue 05:27:03 PM 50.8333 -102.8333 270° West 410 472 40,000  Level Winnipeg Center
Tue 05:28:03 PM 50.8667 -102.9833 289° West 410 472 40,000  Level Winnipeg Center
Tue 05:29:03 PM 50.8667 -103.1500 270° West 410 472 40,000  Level Winnipeg Center
Tue 05:30:03 PM 50.9000 -103.3333 286° West 410 472 40,000  Level Winnipeg Center
Tue 05:31:03 PM 50.9000 -103.5333 270° West 400 460 40,000  Level Winnipeg Center
Tue 05:32:03 PM 50.9167 -103.6833 280° West 400 460 40,000  Level Winnipeg Center
Tue 05:33:03 PM 50.9333 -103.8833 278° West 400 460 40,000  Level Winnipeg Center
Tue 05:34:03 PM 50.9500 -104.0667 278° West 400 460 40,000  Level Winnipeg Center
Tue 05:35:03 PM 50.9500 -104.2333 270° West 400 460 40,000  Level Winnipeg Center
Tue 05:36:03 PM 50.9833 -104.4167 286° West 410 472 40,000  Level Winnipeg Center
Tue 05:37:03 PM 50.9833 -104.5833 270° West 410 472 40,000  Level Winnipeg Center
Tue 05:38:03 PM 51.0000 -104.7667 278° West 410 472 40,000  Level Winnipeg Center
Tue 05:39:03 PM 51.0167 -104.9333 279° West 410 472 40,000  Level Winnipeg Center
Tue 05:40:03 PM 51.0167 -105.1167 270° West 410 472 40,000  Level Winnipeg Center
Tue 05:41:03 PM 51.0333 -105.3167 278° West 410 472 40,000  Level Winnipeg Center
Tue 05:42:03 PM 51.0333 -105.4667 270° West 410 472 40,000  Level Winnipeg Center
Tue 05:43:03 PM 51.0667 -105.6667 285° West 410 472 40,000  Level Winnipeg Center
Tue 05:44:03 PM 51.0667 -105.8500 270° West 410 472 40,000  Level Winnipeg Center
Tue 05:45:03 PM 51.0833 -106.0333 278° West 410 472 40,000  Level Winnipeg Center
Tue 05:46:03 PM 51.0833 -106.2000 270° West 410 472 40,000  Level Winnipeg Center
Tue 05:47:03 PM 51.1000 -106.4000 278° West 410 472 40,000  Level Winnipeg Center
Tue 05:48:03 PM 51.1000 -106.5833 270° West 410 472 40,000  Level Winnipeg Center
Tue 05:49:03 PM 51.1167 -106.7667 278° West 420 483 40,000  Level Winnipeg Center
Tue 05:50:03 PM 51.1333 -106.9333 279° West 420 483 40,000  Level Winnipeg Center
Tue 05:51:03 PM 51.1500 -107.1333 278° West 420 483 40,000  Level Winnipeg Center
Tue 05:52:03 PM 51.1667 -107.3167 278° West 420 483 40,000  Level Winnipeg Center
Tue 05:53:03 PM 51.1667 -107.5000 270° West 420 483 40,000  Level Winnipeg Center
Tue 05:54:03 PM 51.1667 -107.7000 270° West 420 483 40,000  Level Winnipeg Center
Tue 05:55:03 PM 51.1667 -107.8833 270° West 430 495 40,000  Level Winnipeg Center
Tue 05:56:03 PM 51.1833 -108.0500 279° West 430 495 40,000  Level Winnipeg Center
Tue 05:57:03 PM 51.1833 -108.2333 270° West 430 495 40,000  Level Winnipeg Center
Tue 05:58:00 PM 51.1833 -108.4167 270° West 420 483 40,000  Level Edmonton Center
Tue 05:59:00 PM 51.2000 -108.6000 278° West 430 495 40,000  Level Edmonton Center
Tue 06:00:00 PM 51.2000 -108.7833 270° West 420 483 40,000  Level Edmonton Center
Tue 06:01:00 PM 51.2167 -108.9500 279° West 420 483 40,000  Level Edmonton Center
Tue 06:02:00 PM 51.2333 -109.1667 277° West 430 495 40,000  Level Edmonton Center
Tue 06:03:00 PM 51.2167 -109.3500 262° West 430 495 40,000  Level Edmonton Center
Tue 06:04:00 PM 51.2333 -109.5500 278° West 430 495 40,000  Level Edmonton Center
Tue 06:05:00 PM 51.2333 -109.7333 270° West 430 495 40,000  Level Edmonton Center
Tue 06:06:00 PM 51.2500 -109.9333 278° West 430 495 40,000  Level Edmonton Center
Tue 06:07:00 PM 51.2500 -110.1167 270° West 430 495 40,000  Level Edmonton Center
Tue 06:08:00 PM 51.2667 -110.3333 277° West 430 495 40,000  Level Edmonton Center
Tue 06:09:00 PM 51.2500 -110.5167 262° West 430 495 40,000 -50 Level Edmonton Center
Tue 06:10:00 PM 51.2500 -110.7167 270° West 430 495 39,900 -850 Descending Edmonton Center
Tue 06:11:00 PM 51.2667 -110.9000 278° West 440 506 38,300 -1,700 Descending Edmonton Center
Tue 06:12:00 PM 51.2667 -111.1167 270° West 440 506 36,500 -2,000 Descending Edmonton Center
Tue 06:13:03 PM 51.2833 -111.3500 277° West 450 518 34,200 -2,200 Descending Winnipeg Center
Tue 06:14:00 PM 51.2833 -111.5333 270° West 450 518 32,100 -2,308 Descending Edmonton Center
Tue 06:15:00 PM 51.2667 -111.7167 262° West 450 518 29,700 -2,400 Descending Edmonton Center
Tue 06:16:00 PM 51.2667 -111.9000 270° West 450 518 27,300 -2,450 Descending Edmonton Center
Tue 06:17:00 PM 51.2833 -112.1167 277° West 450 518 24,800 -2,400 Descending Edmonton Center
Tue 06:18:00 PM 51.2833 -112.3167 270° West 430 495 22,500 -2,300 Descending Edmonton Center
Tue 06:19:00 PM 51.2667 -112.5000 262° West 420 483 20,200 -2,250 Descending Edmonton Center
Tue 06:20:00 PM 51.2500 -112.6667 261° West 400 460 18,000 -2,050 Descending Edmonton Center
Tue 06:21:00 PM 51.2500 -112.8167 270° West 380 437 16,100 -1,850 Descending Edmonton Center
Tue 06:22:00 PM 51.2333 -112.9833 261° West 340 391 14,300 -1,650 Descending Edmonton Center
Tue 06:23:00 PM 51.2333 -113.1167 270° West 310 357 12,800 -1,200 Descending Edmonton Center
Tue 06:24:00 PM 51.2000 -113.2167 242° Southwest 270 311 11,900 -1,450 Descending Edmonton Center
Tue 06:25:00 PM 51.1833 -113.3500 259° West 270 311 9,900 -1,950 Descending Edmonton Center
Tue 06:26:00 PM 51.1667 -113.4500 255° West 260 299 8,000 -1,020 Descending Edmonton Center
Tue 06:27:00 PM 51.1563 -113.6236 254° West  Level FlightAware Approximate
Tue 06:30:00 PM 51.0833 -113.9000 163° South 210 242 4,800  Level Edmonton Center
Tue 06:31:00 PM 51.1139 -114.0203 298° West  Level Estimated
Tue 06:31:00 PM 51.0833 -113.9500 298° West 120 138 4,500  Level Edmonton Center
Tue 06:32:00 PM 51.0667 -114.0000 242° Southwest 120 138 3,900 -450 Descending Edmonton Center
Tue 06:33:00 PM 51.0667 -114.0500 270° West 220 253 3,600 -300 Descending Edmonton Center
Tue 06:34:00 PM 51.1000 -114.0167 163° South  Level FlightAware Approximate
Tue 06:35:00 PM 51.1139 -114.0203 163° South  Level Estimated

Login

Don't have an account? Register now (free) for customized features, flight alerts, and more!